Terminal Aerodrome Forecast
Issued by NWS

Current Version | Previous Version | Text Only | Print | Product List | Glossary Off
Versions: 1 2 3 4 5 6 7 8 9 10 11 12 13 14 15 16 17 18 19 20 21 22

364
FTUS41 KPBZ 192128 AAA
TAFMGW
TAF AMD
KMGW 192128Z 1921/2018 00000KT P6SM SCT015
     FM200900 14008KT P6SM VCSH OVC060
     FM201100 16005KT 2SM -RA BR OVC007 WS020/20035KT=

USA.gov is the U.S. government's official web portal to all federal, state and local government web resources and services.